sensor_id;sensor_type;location;lat;lon;timestamp;temperature;humidity
9849;DHT22;4963;51.444;6.528;2023-02-03T00:00:38;8.40;99.90
9849;DHT22;4963;51.444;6.528;2023-02-03T00:03:06;8.50;99.90
9849;DHT22;4963;51.444;6.528;2023-02-03T00:05:34;8.40;99.90
9849;DHT22;4963;51.444;6.528;2023-02-03T00:08:02;8.50;99.90
9849;DHT22;4963;51.444;6.528;2023-02-03T00:10:29;8.50;99.90
9849;DHT22;4963;51.444;6.528;2023-02-03T00:12:56;8.40;99.90
9849;DHT22;4963;51.444;6.528;2023-02-03T00:15:23;8.50;99.90
9849;DHT22;4963;51.444;6.528;2023-02-03T00:17:50;8.50;99.90
9849;DHT22;4963;51.444;6.528;2023-02-03T00:20:18;8.50;99.90
9849;DHT22;4963;51.444;6.528;2023-02-03T00:22:45;8.50;99.90
9849;DHT22;4963;51.444;6.528;2023-02-03T00:25:11;8.50;99.90
9849;DHT22;4963;51.444;6.528;2023-02-03T00:27:38;8.50;99.90
9849;DHT22;4963;51.444;6.528;2023-02-03T00:30:06;8.50;99.90
9849;DHT22;4963;51.444;6.528;2023-02-03T00:32:32;8.50;99.90
9849;DHT22;4963;51.444;6.528;2023-02-03T00:34:59;8.50;99.90
9849;DHT22;4963;51.444;6.528;2023-02-03T00:37:27;8.50;99.90
9849;DHT22;4963;51.444;6.528;2023-02-03T00:39:54;8.50;99.90
9849;DHT22;4963;51.444;6.528;2023-02-03T00:42:21;8.50;99.90
9849;DHT22;4963;51.444;6.528;2023-02-03T00:44:47;8.50;99.90
9849;DHT22;4963;51.444;6.528;2023-02-03T00:47:14;8.50;99.90
9849;DHT22;4963;51.444;6.528;2023-02-03T00:49:41;8.50;99.90
9849;DHT22;4963;51.444;6.528;2023-02-03T00:52:08;8.50;99.90
9849;DHT22;4963;51.444;6.528;2023-02-03T00:54:36;8.50;99.90
9849;DHT22;4963;51.444;6.528;2023-02-03T00:57:03;8.60;99.90
9849;DHT22;4963;51.444;6.528;2023-02-03T00:59:29;8.60;99.90
9849;DHT22;4963;51.444;6.528;2023-02-03T01:01:56;8.60;99.90
9849;DHT22;4963;51.444;6.528;2023-02-03T01:04:23;8.60;99.90
9849;DHT22;4963;51.444;6.528;2023-02-03T01:06:50;8.60;99.90
9849;DHT22;4963;51.444;6.528;2023-02-03T01:09:20;8.60;99.90
9849;DHT22;4963;51.444;6.528;2023-02-03T01:11:48;8.60;99.90
9849;DHT22;4963;51.444;6.528;2023-02-03T01:14:15;8.60;99.90
9849;DHT22;4963;51.444;6.528;2023-02-03T01:16:42;8.60;99.90
9849;DHT22;4963;51.444;6.528;2023-02-03T01:19:09;8.50;99.90
9849;DHT22;4963;51.444;6.528;2023-02-03T01:21:35;8.60;99.90
9849;DHT22;4963;51.444;6.528;2023-02-03T01:24:02;8.60;99.90
9849;DHT22;4963;51.444;6.528;2023-02-03T01:26:29;8.60;99.90
9849;DHT22;4963;51.444;6.528;2023-02-03T01:28:58;8.60;99.90
9849;DHT22;4963;51.444;6.528;2023-02-03T01:31:26;8.60;99.90
9849;DHT22;4963;51.444;6.528;2023-02-03T01:33:54;8.60;99.90
9849;DHT22;4963;51.444;6.528;2023-02-03T01:36:23;8.60;99.90
9849;DHT22;4963;51.444;6.528;2023-02-03T01:38:51;8.60;99.90
9849;DHT22;4963;51.444;6.528;2023-02-03T01:41:20;8.60;99.90
9849;DHT22;4963;51.444;6.528;2023-02-03T01:43:48;8.60;99.90
9849;DHT22;4963;51.444;6.528;2023-02-03T01:46:29;8.60;99.90
9849;DHT22;4963;51.444;6.528;2023-02-03T01:49:03;8.60;99.90
9849;DHT22;4963;51.444;6.528;2023-02-03T01:51:31;8.70;99.90
9849;DHT22;4963;51.444;6.528;2023-02-03T01:53:58;8.60;99.90
9849;DHT22;4963;51.444;6.528;2023-02-03T01:56:27;8.60;99.90
9849;DHT22;4963;51.444;6.528;2023-02-03T01:58:56;8.60;99.90
9849;DHT22;4963;51.444;6.528;2023-02-03T02:01:26;8.60;99.90
9849;DHT22;4963;51.444;6.528;2023-02-03T02:03:56;8.60;99.90
9849;DHT22;4963;51.444;6.528;2023-02-03T02:06:24;8.60;99.90
9849;DHT22;4963;51.444;6.528;2023-02-03T02:08:52;8.70;99.90
9849;DHT22;4963;51.444;6.528;2023-02-03T02:11:19;8.60;99.90
9849;DHT22;4963;51.444;6.528;2023-02-03T02:13:48;8.60;99.90
9849;DHT22;4963;51.444;6.528;2023-02-03T02:16:16;8.60;99.90
9849;DHT22;4963;51.444;6.528;2023-02-03T02:19:25;8.60;99.90
9849;DHT22;4963;51.444;6.528;2023-02-03T02:22:05;8.60;99.90
9849;DHT22;4963;51.444;6.528;2023-02-03T02:25:01;8.60;99.90
9849;DHT22;4963;51.444;6.528;2023-02-03T02:27:47;8.60;99.90
9849;DHT22;4963;51.444;6.528;2023-02-03T02:33:28;8.60;99.90
9849;DHT22;4963;51.444;6.528;2023-02-03T02:36:05;8.50;99.90
9849;DHT22;4963;51.444;6.528;2023-02-03T02:38:44;8.60;99.90
9849;DHT22;4963;51.444;6.528;2023-02-03T02:41:16;8.60;99.90
9849;DHT22;4963;51.444;6.528;2023-02-03T02:43:48;8.50;99.90
9849;DHT22;4963;51.444;6.528;2023-02-03T02:46:22;8.60;99.90
9849;DHT22;4963;51.444;6.528;2023-02-03T02:48:55;8.60;99.90
9849;DHT22;4963;51.444;6.528;2023-02-03T02:51:23;8.50;99.90
9849;DHT22;4963;51.444;6.528;2023-02-03T02:53:53;8.50;99.90
9849;DHT22;4963;51.444;6.528;2023-02-03T02:56:23;8.60;99.90
9849;DHT22;4963;51.444;6.528;2023-02-03T02:58:52;8.60;99.90
9849;DHT22;4963;51.444;6.528;2023-02-03T03:01:21;8.60;99.90
9849;DHT22;4963;51.444;6.528;2023-02-03T03:03:48;8.60;99.90
9849;DHT22;4963;51.444;6.528;2023-02-03T03:06:20;8.60;99.90
9849;DHT22;4963;51.444;6.528;2023-02-03T03:08:52;8.60;99.90
9849;DHT22;4963;51.444;6.528;2023-02-03T03:11:20;8.50;99.90
9849;DHT22;4963;51.444;6.528;2023-02-03T03:13:50;8.60;99.90
9849;DHT22;4963;51.444;6.528;2023-02-03T03:16:21;8.60;99.90
9849;DHT22;4963;51.444;6.528;2023-02-03T03:18:51;8.50;99.90
9849;DHT22;4963;51.444;6.528;2023-02-03T03:21:24;8.50;99.90
9849;DHT22;4963;51.444;6.528;2023-02-03T03:23:55;8.50;99.90
9849;DHT22;4963;51.444;6.528;2023-02-03T03:26:27;8.50;99.90
9849;DHT22;4963;51.444;6.528;2023-02-03T03:29:02;8.60;99.90
9849;DHT22;4963;51.444;6.528;2023-02-03T03:31:32;8.60;99.90
9849;DHT22;4963;51.444;6.528;2023-02-03T03:33:59;8.60;99.90
9849;DHT22;4963;51.444;6.528;2023-02-03T03:36:30;8.60;99.90
9849;DHT22;4963;51.444;6.528;2023-02-03T03:39:02;8.60;99.90
9849;DHT22;4963;51.444;6.528;2023-02-03T03:41:38;8.60;99.90
9849;DHT22;4963;51.444;6.528;2023-02-03T03:44:10;8.60;99.90
9849;DHT22;4963;51.444;6.528;2023-02-03T03:46:42;8.60;99.90
9849;DHT22;4963;51.444;6.528;2023-02-03T03:49:11;8.60;99.90
9849;DHT22;4963;51.444;6.528;2023-02-03T03:51:43;8.60;99.90
9849;DHT22;4963;51.444;6.528;2023-02-03T03:54:14;8.60;99.90
9849;DHT22;4963;51.444;6.528;2023-02-03T03:56:45;8.70;99.90
9849;DHT22;4963;51.444;6.528;2023-02-03T03:59:14;8.60;99.90
9849;DHT22;4963;51.444;6.528;2023-02-03T04:01:42;8.60;99.90
9849;DHT22;4963;51.444;6.528;2023-02-03T04:04:09;8.60;99.90
9849;DHT22;4963;51.444;6.528;2023-02-03T04:06:37;8.60;99.90
9849;DHT22;4963;51.444;6.528;2023-02-03T04:09:06;8.60;99.90
9849;DHT22;4963;51.444;6.528;2023-02-03T04:11:33;8.60;99.90
9849;DHT22;4963;51.444;6.528;2023-02-03T04:14:17;8.70;99.90
9849;DHT22;4963;51.444;6.528;2023-02-03T04:16:44;8.70;99.90
9849;DHT22;4963;51.444;6.528;2023-02-03T04:19:10;8.60;99.90
9849;DHT22;4963;51.444;6.528;2023-02-03T04:21:37;8.60;99.90
9849;DHT22;4963;51.444;6.528;2023-02-03T04:24:06;8.70;99.90
9849;DHT22;4963;51.444;6.528;2023-02-03T04:26:33;8.60;99.90
9849;DHT22;4963;51.444;6.528;2023-02-03T04:28:59;8.60;99.90
9849;DHT22;4963;51.444;6.528;2023-02-03T04:31:26;8.60;99.90
9849;DHT22;4963;51.444;6.528;2023-02-03T04:33:53;8.60;99.90
9849;DHT22;4963;51.444;6.528;2023-02-03T04:36:19;8.70;99.90
9849;DHT22;4963;51.444;6.528;2023-02-03T04:38:47;8.70;99.90
9849;DHT22;4963;51.444;6.528;2023-02-03T04:41:16;8.70;99.90
9849;DHT22;4963;51.444;6.528;2023-02-03T04:43:43;8.70;99.90
9849;DHT22;4963;51.444;6.528;2023-02-03T04:46:10;8.70;99.90
9849;DHT22;4963;51.444;6.528;2023-02-03T04:48:36;8.70;99.90
9849;DHT22;4963;51.444;6.528;2023-02-03T04:51:05;8.70;99.90
9849;DHT22;4963;51.444;6.528;2023-02-03T04:53:32;8.60;99.90
9849;DHT22;4963;51.444;6.528;2023-02-03T04:55:59;8.70;99.90
9849;DHT22;4963;51.444;6.528;2023-02-03T04:58:27;8.70;99.90
9849;DHT22;4963;51.444;6.528;2023-02-03T05:00:55;8.70;99.90
9849;DHT22;4963;51.444;6.528;2023-02-03T05:03:22;8.70;99.90
9849;DHT22;4963;51.444;6.528;2023-02-03T05:05:48;8.70;99.90
9849;DHT22;4963;51.444;6.528;2023-02-03T05:08:15;8.70;99.90
9849;DHT22;4963;51.444;6.528;2023-02-03T05:10:42;8.70;99.90
9849;DHT22;4963;51.444;6.528;2023-02-03T05:13:09;8.70;99.90
9849;DHT22;4963;51.444;6.528;2023-02-03T05:15:37;8.70;99.90
9849;DHT22;4963;51.444;6.528;2023-02-03T05:18:05;8.70;99.90
9849;DHT22;4963;51.444;6.528;2023-02-03T05:20:32;8.70;99.90
9849;DHT22;4963;51.444;6.528;2023-02-03T05:22:58;8.70;99.90
9849;DHT22;4963;51.444;6.528;2023-02-03T05:25:26;8.70;99.90
9849;DHT22;4963;51.444;6.528;2023-02-03T05:27:52;8.70;99.90
9849;DHT22;4963;51.444;6.528;2023-02-03T05:30:19;8.70;99.90
9849;DHT22;4963;51.444;6.528;2023-02-03T05:32:48;8.70;99.90
9849;DHT22;4963;51.444;6.528;2023-02-03T05:35:15;8.70;99.90
9849;DHT22;4963;51.444;6.528;2023-02-03T05:37:43;8.70;99.90
9849;DHT22;4963;51.444;6.528;2023-02-03T05:40:11;8.70;99.90
9849;DHT22;4963;51.444;6.528;2023-02-03T05:43:00;8.70;99.90
9849;DHT22;4963;51.444;6.528;2023-02-03T05:45:27;8.70;99.90
9849;DHT22;4963;51.444;6.528;2023-02-03T05:47:55;8.70;99.90
9849;DHT22;4963;51.444;6.528;2023-02-03T05:50:22;8.70;99.90
9849;DHT22;4963;51.444;6.528;2023-02-03T05:52:51;8.70;99.90
9849;DHT22;4963;51.444;6.528;2023-02-03T05:55:17;8.70;99.90
9849;DHT22;4963;51.444;6.528;2023-02-03T05:57:44;8.70;99.90
9849;DHT22;4963;51.444;6.528;2023-02-03T06:00:12;8.70;99.90
9849;DHT22;4963;51.444;6.528;2023-02-03T06:02:39;8.70;99.90
9849;DHT22;4963;51.444;6.528;2023-02-03T06:05:07;8.70;99.90
9849;DHT22;4963;51.444;6.528;2023-02-03T06:07:34;8.70;99.90
9849;DHT22;4963;51.444;6.528;2023-02-03T06:10:01;8.70;99.90
9849;DHT22;4963;51.444;6.528;2023-02-03T06:12:28;8.80;99.90
9849;DHT22;4963;51.444;6.528;2023-02-03T06:14:55;8.70;99.90
9849;DHT22;4963;51.444;6.528;2023-02-03T06:17:22;8.80;99.90
9849;DHT22;4963;51.444;6.528;2023-02-03T06:19:48;8.70;99.90
9849;DHT22;4963;51.444;6.528;2023-02-03T06:22:16;8.80;99.90
9849;DHT22;4963;51.444;6.528;2023-02-03T06:24:43;8.80;99.90
9849;DHT22;4963;51.444;6.528;2023-02-03T06:27:12;8.80;99.90
9849;DHT22;4963;51.444;6.528;2023-02-03T06:29:39;8.80;99.90
9849;DHT22;4963;51.444;6.528;2023-02-03T06:32:06;8.80;99.90
9849;DHT22;4963;51.444;6.528;2023-02-03T06:34:33;8.80;99.90
9849;DHT22;4963;51.444;6.528;2023-02-03T06:37:00;8.70;99.90
9849;DHT22;4963;51.444;6.528;2023-02-03T06:39:28;8.70;99.90
9849;DHT22;4963;51.444;6.528;2023-02-03T06:41:55;8.80;99.90
9849;DHT22;4963;51.444;6.528;2023-02-03T06:44:22;8.80;99.90
9849;DHT22;4963;51.444;6.528;2023-02-03T06:46:49;8.80;99.90
9849;DHT22;4963;51.444;6.528;2023-02-03T06:49:16;8.80;99.90
9849;DHT22;4963;51.444;6.528;2023-02-03T06:51:43;8.80;99.90
9849;DHT22;4963;51.444;6.528;2023-02-03T06:54:10;8.80;99.90
9849;DHT22;4963;51.444;6.528;2023-02-03T06:56:39;8.80;99.90
9849;DHT22;4963;51.444;6.528;2023-02-03T06:59:06;8.80;99.90
9849;DHT22;4963;51.444;6.528;2023-02-03T07:01:33;8.80;99.90
9849;DHT22;4963;51.444;6.528;2023-02-03T07:04:00;8.80;99.90
9849;DHT22;4963;51.444;6.528;2023-02-03T07:06:27;8.80;99.90
9849;DHT22;4963;51.444;6.528;2023-02-03T07:08:57;8.80;99.90
9849;DHT22;4963;51.444;6.528;2023-02-03T07:11:24;8.80;99.90
9849;DHT22;4963;51.444;6.528;2023-02-03T07:13:52;8.80;99.90
9849;DHT22;4963;51.444;6.528;2023-02-03T07:16:19;8.90;99.90
9849;DHT22;4963;51.444;6.528;2023-02-03T07:18:46;8.90;99.90
9849;DHT22;4963;51.444;6.528;2023-02-03T07:21:14;8.90;99.90
9849;DHT22;4963;51.444;6.528;2023-02-03T07:23:41;8.80;99.90
9849;DHT22;4963;51.444;6.528;2023-02-03T07:26:10;8.90;99.90
9849;DHT22;4963;51.444;6.528;2023-02-03T07:28:36;8.80;99.90
9849;DHT22;4963;51.444;6.528;2023-02-03T07:31:05;8.90;99.90
9849;DHT22;4963;51.444;6.528;2023-02-03T07:33:32;8.90;99.90
9849;DHT22;4963;51.444;6.528;2023-02-03T07:35:59;8.80;99.90
9849;DHT22;4963;51.444;6.528;2023-02-03T07:38:27;8.90;99.90
9849;DHT22;4963;51.444;6.528;2023-02-03T07:40:54;8.80;99.90
9849;DHT22;4963;51.444;6.528;2023-02-03T07:43:21;8.80;99.90
9849;DHT22;4963;51.444;6.528;2023-02-03T07:45:48;8.80;99.90
9849;DHT22;4963;51.444;6.528;2023-02-03T07:48:16;8.90;99.90
9849;DHT22;4963;51.444;6.528;2023-02-03T07:50:43;8.90;99.90
9849;DHT22;4963;51.444;6.528;2023-02-03T07:53:11;8.90;99.90
9849;DHT22;4963;51.444;6.528;2023-02-03T07:55:38;8.90;99.90
9849;DHT22;4963;51.444;6.528;2023-02-03T07:58:05;8.90;99.90
9849;DHT22;4963;51.444;6.528;2023-02-03T08:00:32;8.90;99.90
9849;DHT22;4963;51.444;6.528;2023-02-03T08:02:59;8.90;99.90
9849;DHT22;4963;51.444;6.528;2023-02-03T08:05:27;8.90;99.90
9849;DHT22;4963;51.444;6.528;2023-02-03T08:07:55;8.90;99.90
9849;DHT22;4963;51.444;6.528;2023-02-03T08:10:22;8.90;99.90
9849;DHT22;4963;51.444;6.528;2023-02-03T08:12:52;8.90;99.90
9849;DHT22;4963;51.444;6.528;2023-02-03T08:15:19;8.90;99.90
9849;DHT22;4963;51.444;6.528;2023-02-03T08:17:47;8.90;99.90
9849;DHT22;4963;51.444;6.528;2023-02-03T08:20:14;8.90;99.90
9849;DHT22;4963;51.444;6.528;2023-02-03T08:22:43;8.90;99.90
9849;DHT22;4963;51.444;6.528;2023-02-03T08:25:10;8.90;99.90
9849;DHT22;4963;51.444;6.528;2023-02-03T08:27:37;8.90;99.90
9849;DHT22;4963;51.444;6.528;2023-02-03T08:30:05;8.90;99.90
9849;DHT22;4963;51.444;6.528;2023-02-03T08:32:32;8.90;99.90
9849;DHT22;4963;51.444;6.528;2023-02-03T08:34:59;8.90;99.90
9849;DHT22;4963;51.444;6.528;2023-02-03T08:37:26;9.00;99.90
9849;DHT22;4963;51.444;6.528;2023-02-03T08:39:58;8.90;99.90
9849;DHT22;4963;51.444;6.528;2023-02-03T08:42:25;9.00;99.90
9849;DHT22;4963;51.444;6.528;2023-02-03T08:44:51;9.00;99.90
9849;DHT22;4963;51.444;6.528;2023-02-03T08:47:18;9.00;99.90
9849;DHT22;4963;51.444;6.528;2023-02-03T08:49:45;9.00;99.90
9849;DHT22;4963;51.444;6.528;2023-02-03T08:52:13;9.00;99.90
9849;DHT22;4963;51.444;6.528;2023-02-03T08:54:40;9.10;99.90
9849;DHT22;4963;51.444;6.528;2023-02-03T08:57:08;9.10;99.90
9849;DHT22;4963;51.444;6.528;2023-02-03T08:59:37;9.10;99.90
9849;DHT22;4963;51.444;6.528;2023-02-03T09:02:06;9.10;99.90
9849;DHT22;4963;51.444;6.528;2023-02-03T09:04:34;9.10;99.90
9849;DHT22;4963;51.444;6.528;2023-02-03T09:07:01;9.10;99.90
9849;DHT22;4963;51.444;6.528;2023-02-03T09:09:29;9.10;99.90
9849;DHT22;4963;51.444;6.528;2023-02-03T09:11:56;9.10;99.90
9849;DHT22;4963;51.444;6.528;2023-02-03T09:14:28;9.10;99.90
9849;DHT22;4963;51.444;6.528;2023-02-03T09:16:56;9.10;99.90
9849;DHT22;4963;51.444;6.528;2023-02-03T09:19:22;9.10;99.90
9849;DHT22;4963;51.444;6.528;2023-02-03T09:21:49;9.10;99.90
9849;DHT22;4963;51.444;6.528;2023-02-03T09:24:17;9.20;99.90
9849;DHT22;4963;51.444;6.528;2023-02-03T09:26:44;9.20;99.90
9849;DHT22;4963;51.444;6.528;2023-02-03T09:29:11;9.20;99.90
9849;DHT22;4963;51.444;6.528;2023-02-03T09:31:39;9.20;99.90
9849;DHT22;4963;51.444;6.528;2023-02-03T09:34:06;9.20;99.90
9849;DHT22;4963;51.444;6.528;2023-02-03T09:36:33;9.20;99.90
9849;DHT22;4963;51.444;6.528;2023-02-03T09:39:00;9.20;99.90
9849;DHT22;4963;51.444;6.528;2023-02-03T09:41:39;9.20;99.90
9849;DHT22;4963;51.444;6.528;2023-02-03T09:44:13;9.20;99.90
9849;DHT22;4963;51.444;6.528;2023-02-03T09:46:46;9.30;99.90
9849;DHT22;4963;51.444;6.528;2023-02-03T09:49:17;9.30;99.90
9849;DHT22;4963;51.444;6.528;2023-02-03T09:51:47;9.30;99.90
9849;DHT22;4963;51.444;6.528;2023-02-03T09:54:19;9.30;99.90
9849;DHT22;4963;51.444;6.528;2023-02-03T09:56:48;9.30;99.90
9849;DHT22;4963;51.444;6.528;2023-02-03T09:59:17;9.30;99.90
9849;DHT22;4963;51.444;6.528;2023-02-03T10:01:53;9.30;99.90
9849;DHT22;4963;51.444;6.528;2023-02-03T10:04:26;9.30;99.90
9849;DHT22;4963;51.444;6.528;2023-02-03T10:07:01;9.40;99.90
9849;DHT22;4963;51.444;6.528;2023-02-03T10:09:42;9.40;99.90
9849;DHT22;4963;51.444;6.528;2023-02-03T10:12:27;9.40;99.90
9849;DHT22;4963;51.444;6.528;2023-02-03T10:15:06;9.40;99.90
9849;DHT22;4963;51.444;6.528;2023-02-03T10:17:40;9.40;99.90
9849;DHT22;4963;51.444;6.528;2023-02-03T10:20:14;9.40;99.90
9849;DHT22;4963;51.444;6.528;2023-02-03T10:22:44;9.50;99.90
9849;DHT22;4963;51.444;6.528;2023-02-03T10:25:18;9.50;99.90
9849;DHT22;4963;51.444;6.528;2023-02-03T10:27:50;9.50;99.90
9849;DHT22;4963;51.444;6.528;2023-02-03T10:30:20;9.60;99.90
9849;DHT22;4963;51.444;6.528;2023-02-03T10:32:50;9.60;99.90
9849;DHT22;4963;51.444;6.528;2023-02-03T10:35:20;9.60;99.90
9849;DHT22;4963;51.444;6.528;2023-02-03T10:37:49;9.70;99.90
9849;DHT22;4963;51.444;6.528;2023-02-03T10:40:17;9.60;99.90
9849;DHT22;4963;51.444;6.528;2023-02-03T10:42:46;9.70;99.90
9849;DHT22;4963;51.444;6.528;2023-02-03T10:45:35;9.70;99.90
9849;DHT22;4963;51.444;6.528;2023-02-03T10:48:05;9.70;99.90
9849;DHT22;4963;51.444;6.528;2023-02-03T10:50:35;9.70;99.90
9849;DHT22;4963;51.444;6.528;2023-02-03T10:53:25;9.80;99.90
9849;DHT22;4963;51.444;6.528;2023-02-03T10:56:00;9.80;99.90
9849;DHT22;4963;51.444;6.528;2023-02-03T10:58:29;9.80;99.90
9849;DHT22;4963;51.444;6.528;2023-02-03T11:01:05;9.80;99.90
9849;DHT22;4963;51.444;6.528;2023-02-03T11:03:34;9.80;99.90
9849;DHT22;4963;51.444;6.528;2023-02-03T11:06:09;9.80;99.90
9849;DHT22;4963;51.444;6.528;2023-02-03T11:08:37;9.80;99.90
9849;DHT22;4963;51.444;6.528;2023-02-03T11:11:07;9.80;99.90
9849;DHT22;4963;51.444;6.528;2023-02-03T11:13:35;9.80;99.90
9849;DHT22;4963;51.444;6.528;2023-02-03T11:16:04;9.80;99.90
9849;DHT22;4963;51.444;6.528;2023-02-03T11:18:39;9.80;99.90
9849;DHT22;4963;51.444;6.528;2023-02-03T11:21:12;9.80;99.90
9849;DHT22;4963;51.444;6.528;2023-02-03T11:24:01;9.80;99.90
9849;DHT22;4963;51.444;6.528;2023-02-03T11:26:32;9.80;99.90
9849;DHT22;4963;51.444;6.528;2023-02-03T11:29:01;9.80;99.90
9849;DHT22;4963;51.444;6.528;2023-02-03T11:31:30;9.80;99.90
9849;DHT22;4963;51.444;6.528;2023-02-03T11:34:01;9.80;99.90
9849;DHT22;4963;51.444;6.528;2023-02-03T11:36:31;9.80;99.90
9849;DHT22;4963;51.444;6.528;2023-02-03T11:39:19;9.70;99.90
9849;DHT22;4963;51.444;6.528;2023-02-03T11:41:47;9.80;99.90
9849;DHT22;4963;51.444;6.528;2023-02-03T11:44:25;9.80;99.90
9849;DHT22;4963;51.444;6.528;2023-02-03T11:46:56;9.80;99.90
9849;DHT22;4963;51.444;6.528;2023-02-03T11:52:46;9.80;99.90
9849;DHT22;4963;51.444;6.528;2023-02-03T11:55:49;9.80;99.90
9849;DHT22;4963;51.444;6.528;2023-02-03T12:01:41;9.80;99.90
9849;DHT22;4963;51.444;6.528;2023-02-03T12:04:24;9.80;99.90
9849;DHT22;4963;51.444;6.528;2023-02-03T12:07:07;9.80;99.90
9849;DHT22;4963;51.444;6.528;2023-02-03T12:09:48;9.80;99.90
9849;DHT22;4963;51.444;6.528;2023-02-03T12:12:28;9.70;99.90
9849;DHT22;4963;51.444;6.528;2023-02-03T12:15:05;9.80;99.90
9849;DHT22;4963;51.444;6.528;2023-02-03T12:17:51;9.80;99.90
9849;DHT22;4963;51.444;6.528;2023-02-03T12:20:33;9.80;99.90
9849;DHT22;4963;51.444;6.528;2023-02-03T12:23:13;9.80;99.90
9849;DHT22;4963;51.444;6.528;2023-02-03T12:25:55;9.80;99.90
9849;DHT22;4963;51.444;6.528;2023-02-03T12:28:44;9.90;99.90
9849;DHT22;4963;51.444;6.528;2023-02-03T12:31:17;9.90;99.90
9849;DHT22;4963;51.444;6.528;2023-02-03T12:33:49;9.90;99.90
9849;DHT22;4963;51.444;6.528;2023-02-03T12:36:21;9.90;99.90
9849;DHT22;4963;51.444;6.528;2023-02-03T12:38:55;9.90;99.90
9849;DHT22;4963;51.444;6.528;2023-02-03T12:41:26;9.90;99.90
9849;DHT22;4963;51.444;6.528;2023-02-03T12:43:58;9.90;99.90
9849;DHT22;4963;51.444;6.528;2023-02-03T12:46:30;10.00;99.90
9849;DHT22;4963;51.444;6.528;2023-02-03T12:49:02;10.00;99.90
9849;DHT22;4963;51.444;6.528;2023-02-03T12:51:39;10.00;99.90
9849;DHT22;4963;51.444;6.528;2023-02-03T12:54:28;10.00;99.90
9849;DHT22;4963;51.444;6.528;2023-02-03T12:57:06;10.00;99.90
9849;DHT22;4963;51.444;6.528;2023-02-03T12:59:36;10.10;99.90
9849;DHT22;4963;51.444;6.528;2023-02-03T13:02:12;10.20;99.90
9849;DHT22;4963;51.444;6.528;2023-02-03T13:04:43;10.20;99.90
9849;DHT22;4963;51.444;6.528;2023-02-03T13:07:15;10.20;99.90
9849;DHT22;4963;51.444;6.528;2023-02-03T13:09:52;10.20;99.90
9849;DHT22;4963;51.444;6.528;2023-02-03T13:12:26;10.20;99.90
9849;DHT22;4963;51.444;6.528;2023-02-03T13:14:58;10.20;99.90
9849;DHT22;4963;51.444;6.528;2023-02-03T13:17:27;10.20;99.90
9849;DHT22;4963;51.444;6.528;2023-02-03T13:19:58;10.20;99.90
9849;DHT22;4963;51.444;6.528;2023-02-03T13:22:25;10.30;99.90
9849;DHT22;4963;51.444;6.528;2023-02-03T13:25:04;10.30;99.90
9849;DHT22;4963;51.444;6.528;2023-02-03T13:27:42;10.30;99.90
9849;DHT22;4963;51.444;6.528;2023-02-03T13:30:40;10.30;99.90
9849;DHT22;4963;51.444;6.528;2023-02-03T13:33:29;10.30;99.90
9849;DHT22;4963;51.444;6.528;2023-02-03T13:36:09;10.30;99.90
9849;DHT22;4963;51.444;6.528;2023-02-03T13:38:55;10.20;99.90
9849;DHT22;4963;51.444;6.528;2023-02-03T13:41:35;10.20;99.90
9849;DHT22;4963;51.444;6.528;2023-02-03T13:44:04;10.20;99.90
9849;DHT22;4963;51.444;6.528;2023-02-03T13:46:35;10.20;99.90
9849;DHT22;4963;51.444;6.528;2023-02-03T13:49:03;10.10;99.90
9849;DHT22;4963;51.444;6.528;2023-02-03T13:51:33;10.10;99.90
9849;DHT22;4963;51.444;6.528;2023-02-03T13:54:03;10.10;99.90
9849;DHT22;4963;51.444;6.528;2023-02-03T13:56:33;10.10;99.90
9849;DHT22;4963;51.444;6.528;2023-02-03T13:59:04;10.10;99.90
9849;DHT22;4963;51.444;6.528;2023-02-03T14:01:34;10.10;99.90
9849;DHT22;4963;51.444;6.528;2023-02-03T14:04:03;10.10;99.90
9849;DHT22;4963;51.444;6.528;2023-02-03T14:06:58;10.10;99.90
9849;DHT22;4963;51.444;6.528;2023-02-03T14:09:46;10.10;99.90
9849;DHT22;4963;51.444;6.528;2023-02-03T14:12:55;10.00;99.90
9849;DHT22;4963;51.444;6.528;2023-02-03T14:15:29;10.00;99.90
9849;DHT22;4963;51.444;6.528;2023-02-03T14:21:15;9.90;99.90
9849;DHT22;4963;51.444;6.528;2023-02-03T14:23:48;10.00;99.90
9849;DHT22;4963;51.444;6.528;2023-02-03T14:26:18;10.00;99.90
9849;DHT22;4963;51.444;6.528;2023-02-03T14:28:48;9.90;99.90
9849;DHT22;4963;51.444;6.528;2023-02-03T14:31:18;9.90;99.90
9849;DHT22;4963;51.444;6.528;2023-02-03T14:36:49;9.90;99.90
9849;DHT22;4963;51.444;6.528;2023-02-03T14:42:58;9.80;99.90
9849;DHT22;4963;51.444;6.528;2023-02-03T14:45:41;9.70;99.90
9849;DHT22;4963;51.444;6.528;2023-02-03T14:48:21;9.70;99.90
9849;DHT22;4963;51.444;6.528;2023-02-03T14:51:00;9.70;99.90
9849;DHT22;4963;51.444;6.528;2023-02-03T14:53:48;9.60;99.90
9849;DHT22;4963;51.444;6.528;2023-02-03T14:56:24;9.50;99.90
9849;DHT22;4963;51.444;6.528;2023-02-03T14:58:55;9.40;99.90
9849;DHT22;4963;51.444;6.528;2023-02-03T15:02:08;9.40;99.90
9849;DHT22;4963;51.444;6.528;2023-02-03T15:04:35;9.30;99.90
9849;DHT22;4963;51.444;6.528;2023-02-03T15:07:02;9.40;99.90
9849;DHT22;4963;51.444;6.528;2023-02-03T15:09:31;9.30;99.90
9849;DHT22;4963;51.444;6.528;2023-02-03T15:12:00;9.30;99.90
9849;DHT22;4963;51.444;6.528;2023-02-03T15:14:29;9.20;99.90
9849;DHT22;4963;51.444;6.528;2023-02-03T15:16:59;9.20;99.90
9849;DHT22;4963;51.444;6.528;2023-02-03T15:19:31;9.20;99.90
9849;DHT22;4963;51.444;6.528;2023-02-03T15:21:58;9.20;99.90
9849;DHT22;4963;51.444;6.528;2023-02-03T15:24:34;9.20;99.90
9849;DHT22;4963;51.444;6.528;2023-02-03T15:27:01;9.20;99.90
9849;DHT22;4963;51.444;6.528;2023-02-03T15:29:31;9.20;99.90
9849;DHT22;4963;51.444;6.528;2023-02-03T15:32:03;9.20;99.90
9849;DHT22;4963;51.444;6.528;2023-02-03T15:34:35;9.20;99.90
9849;DHT22;4963;51.444;6.528;2023-02-03T15:37:07;9.20;99.90
9849;DHT22;4963;51.444;6.528;2023-02-03T15:39:55;9.20;99.90
9849;DHT22;4963;51.444;6.528;2023-02-03T15:42:28;9.20;99.90
9849;DHT22;4963;51.444;6.528;2023-02-03T15:44:58;9.20;99.90
9849;DHT22;4963;51.444;6.528;2023-02-03T15:47:31;9.20;99.90
9849;DHT22;4963;51.444;6.528;2023-02-03T15:50:06;9.20;99.90
9849;DHT22;4963;51.444;6.528;2023-02-03T15:52:36;9.20;99.90
9849;DHT22;4963;51.444;6.528;2023-02-03T15:55:14;9.20;99.90
9849;DHT22;4963;51.444;6.528;2023-02-03T15:57:43;9.20;99.90
9849;DHT22;4963;51.444;6.528;2023-02-03T16:03:16;9.20;99.90
9849;DHT22;4963;51.444;6.528;2023-02-03T16:05:47;9.20;99.90
9849;DHT22;4963;51.444;6.528;2023-02-03T16:08:33;9.20;99.90
9849;DHT22;4963;51.444;6.528;2023-02-03T16:11:00;9.20;99.90
9849;DHT22;4963;51.444;6.528;2023-02-03T16:13:28;9.20;99.90
9849;DHT22;4963;51.444;6.528;2023-02-03T16:16:02;9.20;99.90
9849;DHT22;4963;51.444;6.528;2023-02-03T16:18:33;9.30;99.90
9849;DHT22;4963;51.444;6.528;2023-02-03T16:21:03;9.20;99.90
9849;DHT22;4963;51.444;6.528;2023-02-03T16:23:31;9.20;99.90
9849;DHT22;4963;51.444;6.528;2023-02-03T16:26:02;9.20;99.90
9849;DHT22;4963;51.444;6.528;2023-02-03T16:28:29;9.20;99.90
9849;DHT22;4963;51.444;6.528;2023-02-03T16:31:15;9.10;99.90
9849;DHT22;4963;51.444;6.528;2023-02-03T16:34:01;9.10;99.90
9849;DHT22;4963;51.444;6.528;2023-02-03T16:36:46;9.10;99.90
9849;DHT22;4963;51.444;6.528;2023-02-03T16:39:31;9.10;99.90
9849;DHT22;4963;51.444;6.528;2023-02-03T16:42:17;9.10;99.90
9849;DHT22;4963;51.444;6.528;2023-02-03T16:45:01;9.10;99.90
9849;DHT22;4963;51.444;6.528;2023-02-03T16:47:46;9.10;99.90
9849;DHT22;4963;51.444;6.528;2023-02-03T16:50:31;9.10;99.90
9849;DHT22;4963;51.444;6.528;2023-02-03T16:53:20;9.10;99.90
9849;DHT22;4963;51.444;6.528;2023-02-03T16:55:49;9.10;99.90
9849;DHT22;4963;51.444;6.528;2023-02-03T16:58:17;9.10;99.90
9849;DHT22;4963;51.444;6.528;2023-02-03T17:00:45;9.10;99.90
9849;DHT22;4963;51.444;6.528;2023-02-03T17:03:14;9.10;99.90
9849;DHT22;4963;51.444;6.528;2023-02-03T17:05:43;9.10;99.90